createdAt,value
2022-11-12T07:22:08.351Z,100.00
2022-11-12T07:25:10.811Z,100.00
2022-11-12T07:37:47.471Z,100.00
2022-11-12T07:48:03.793Z,100.00
2022-11-12T07:51:08.762Z,100.00
2022-11-12T08:02:49.997Z,100.00
2022-11-12T08:25:09.416Z,100.00
2022-11-12T08:38:59.339Z,100.00
2022-11-12T08:42:01.880Z,100.00
2022-11-12T08:45:04.818Z,100.00
2022-11-12T08:48:09.109Z,100.00
2022-11-12T08:51:11.680Z,100.00
2022-11-12T08:54:15.562Z,100.00
2022-11-12T08:57:18.149Z,100.00
2022-11-12T09:00:20.778Z,100.00
2022-11-12T09:03:24.765Z,100.00
2022-11-12T09:06:27.241Z,100.00
2022-11-12T09:09:31.052Z,100.00
2022-11-12T09:12:33.685Z,100.00
2022-11-12T09:15:37.838Z,100.00
2022-11-12T09:18:40.975Z,100.00
2022-11-12T09:21:43.467Z,100.00
2022-11-12T09:24:47.301Z,100.00
2022-11-12T09:27:49.856Z,100.00
2022-11-12T09:30:53.766Z,100.00
2022-11-12T09:33:56.254Z,100.00
2022-11-12T09:36:58.755Z,100.00
2022-11-12T09:40:02.720Z,100.00
2022-11-12T09:43:13.874Z,100.00
2022-11-12T09:46:28.539Z,100.00
2022-11-12T09:49:35.997Z,100.00
2022-11-12T09:52:43.307Z,97.12
2022-11-12T09:55:50.705Z,95.52
2022-11-12T09:58:53.646Z,89.87
2022-11-12T10:02:02.958Z,88.15
2022-11-12T10:05:33.076Z,85.34
2022-11-12T10:08:41.199Z,84.19
2022-11-12T10:12:24.164Z,80.81
2022-11-12T10:15:55.853Z,79.13
2022-11-12T10:19:14.787Z,78.77
2022-11-12T10:22:38.990Z,78.74
2022-11-12T10:25:44.727Z,76.73
2022-11-12T10:28:51.038Z,77.67
2022-11-12T10:31:53.545Z,76.35
2022-11-12T10:34:56.079Z,74.85
2022-11-12T10:38:02.535Z,78.93
2022-11-12T10:41:19.915Z,75.56
2022-11-12T10:44:27.656Z,76.21
2022-11-12T10:47:33.983Z,75.98
2022-11-12T10:50:41.310Z,74.55
2022-11-12T10:53:43.993Z,73.85
2022-11-12T10:56:47.143Z,73.11
2022-11-12T11:00:08.374Z,73.12
2022-11-12T11:03:20.553Z,74.18
2022-11-12T11:06:26.978Z,74.58
2022-11-12T11:09:29.493Z,76.82
2022-11-12T11:12:34.384Z,75.29
2022-11-12T11:15:40.810Z,76.82
2022-11-12T11:18:47.812Z,76.42
2022-11-12T11:22:03.265Z,76.78
2022-11-12T11:25:27.699Z,81.41
2022-11-12T11:28:37.071Z,79.33
2022-11-12T11:31:45.806Z,79.84
2022-11-12T11:34:59.746Z,81.98
2022-11-12T11:38:21.502Z,81.62
2022-11-12T11:41:48.306Z,82.09
2022-11-12T11:45:03.638Z,83.42
2022-11-12T11:48:18.246Z,85.87
2022-11-12T11:51:35.910Z,89.60
2022-11-12T11:55:05.288Z,89.85
2022-11-12T11:58:17.379Z,92.16
2022-11-12T12:01:27.367Z,93.12
2022-11-12T12:04:43.761Z,95.18
2022-11-12T12:07:55.793Z,93.42
2022-11-12T12:11:08.969Z,95.08
2022-11-12T12:14:26.587Z,95.53
2022-11-12T12:17:45.146Z,95.82
2022-11-12T12:20:55.718Z,93.78
2022-11-12T12:24:03.137Z,93.11
2022-11-12T12:27:11.130Z,91.54
2022-11-12T12:30:19.199Z,94.12
2022-11-12T12:33:30.216Z,91.81
2022-11-12T12:36:38.696Z,90.64
2022-11-12T12:39:49.901Z,89.91
2022-11-12T12:42:58.924Z,88.45
2022-11-12T12:46:02.500Z,85.12
2022-11-12T12:49:07.026Z,85.55
2022-11-12T12:52:15.289Z,85.43
2022-11-12T12:55:37.463Z,84.35
2022-11-12T12:58:45.170Z,85.87
2022-11-12T13:01:57.946Z,83.68
2022-11-12T13:05:00.437Z,84.29
2022-11-12T13:08:09.678Z,80.35
2022-11-12T13:12:02.168Z,83.17
2022-11-12T13:15:16.296Z,82.45
2022-11-12T13:19:03.257Z,80.41
2022-11-12T13:22:49.084Z,83.40
2022-11-12T13:25:51.660Z,85.64
2022-11-12T13:29:27.679Z,85.08
2022-11-12T13:32:43.188Z,84.04
2022-11-12T13:35:47.007Z,83.08
2022-11-12T13:38:50.275Z,83.03
2022-11-12T13:42:25.947Z,82.51
2022-11-12T13:45:28.755Z,84.31
2022-11-12T13:48:36.439Z,87.26
2022-11-12T13:51:43.490Z,88.93
2022-11-12T13:54:46.028Z,87.70
2022-11-12T13:57:52.570Z,88.50
2022-11-12T14:00:56.974Z,89.19
2022-11-12T14:03:59.738Z,89.79
2022-11-12T14:07:22.658Z,90.94
2022-11-12T14:10:36.085Z,93.44
2022-11-12T14:13:51.002Z,96.42
2022-11-12T14:17:04.465Z,100.00
2022-11-12T14:20:26.778Z,100.00
2022-11-12T14:23:31.346Z,100.00
2022-11-12T14:26:36.343Z,100.00
2022-11-12T14:29:43.371Z,100.00
2022-11-12T14:32:48.573Z,100.00
2022-11-12T14:35:53.018Z,100.00
2022-11-12T14:38:58.724Z,100.00
2022-11-12T14:42:01.437Z,100.00
2022-11-12T14:45:04.350Z,100.00
2022-11-12T14:48:10.619Z,100.00
2022-11-12T14:51:15.142Z,100.00
2022-11-12T14:54:28.695Z,100.00
2022-11-12T14:57:32.467Z,100.00
2022-11-12T15:00:42.039Z,100.00
2022-11-12T15:03:44.693Z,100.00
2022-11-12T15:06:53.442Z,100.00
2022-11-12T15:09:57.576Z,100.00
2022-11-12T15:13:06.291Z,100.00
2022-11-12T15:16:10.543Z,100.00
2022-11-12T15:19:24.359Z,100.00
2022-11-12T15:22:26.960Z,100.00
2022-11-12T15:25:32.505Z,100.00
2022-11-12T15:28:35.055Z,100.00
2022-11-12T15:31:44.939Z,100.00
2022-11-12T15:34:49.517Z,100.00
2022-11-12T15:37:52.493Z,100.00
2022-11-12T15:40:57.927Z,100.00
2022-11-12T15:44:01.083Z,100.00
2022-11-12T15:47:04.814Z,100.00
2022-11-12T15:50:16.768Z,100.00
2022-11-12T15:53:19.629Z,100.00
2022-11-12T15:56:23.503Z,100.00
2022-11-12T15:59:25.968Z,100.00
2022-11-12T16:02:30.172Z,100.00
2022-11-12T16:05:32.634Z,100.00
2022-11-12T16:08:35.109Z,100.00
2022-11-12T16:11:39.016Z,100.00
2022-11-12T16:14:42.001Z,100.00
2022-11-12T16:17:44.602Z,100.00
2022-11-12T16:20:48.568Z,100.00
2022-11-12T16:23:51.150Z,100.00
2022-11-12T16:26:55.152Z,100.00
2022-11-12T16:29:57.757Z,100.00
2022-11-12T16:33:01.538Z,100.00
2022-11-12T16:36:04.175Z,100.00
2022-11-12T16:39:06.931Z,100.00
2022-11-12T16:42:11.903Z,100.00
2022-11-12T16:45:15.807Z,100.00
2022-11-12T16:48:20.214Z,100.00
2022-11-12T16:51:23.811Z,100.00
2022-11-12T16:54:26.319Z,100.00
2022-11-12T16:57:31.044Z,100.00
2022-11-12T17:00:34.395Z,100.00
2022-11-12T17:03:38.159Z,100.00
2022-11-12T17:06:42.567Z,100.00
2022-11-12T17:09:46.517Z,100.00
2022-11-12T17:12:55.702Z,100.00
2022-11-12T17:15:59.481Z,100.00
2022-11-12T17:19:03.282Z,100.00
2022-11-12T17:22:06.282Z,100.00
2022-11-12T17:25:10.313Z,100.00
2022-11-12T17:28:14.876Z,100.00
2022-11-12T17:31:28.294Z,100.00
2022-11-12T17:34:32.031Z,100.00
2022-11-12T17:37:40.419Z,100.00
2022-11-12T17:40:43.350Z,100.00
2022-11-12T17:44:05.468Z,100.00
2022-11-12T17:47:11.989Z,100.00
2022-11-12T17:50:22.717Z,100.00
2022-11-12T17:53:30.233Z,100.00
2022-11-12T17:56:36.894Z,100.00
2022-11-12T17:59:53.937Z,100.00
2022-11-12T18:03:00.343Z,100.00
2022-11-12T18:06:12.564Z,100.00
2022-11-12T18:09:19.463Z,100.00
2022-11-12T18:12:22.781Z,100.00
2022-11-12T18:15:32.731Z,100.00
2022-11-12T18:18:37.585Z,100.00
2022-11-12T18:21:42.413Z,100.00
2022-11-12T18:24:51.166Z,100.00
2022-11-12T18:27:53.834Z,100.00
2022-11-12T18:31:01.612Z,100.00
2022-11-12T18:34:04.742Z,100.00
2022-11-12T18:37:07.257Z,100.00
2022-11-12T18:40:10.315Z,100.00
2022-11-12T18:43:12.809Z,100.00
2022-11-12T18:46:16.610Z,100.00
2022-11-12T18:49:19.151Z,100.00
2022-11-12T18:52:21.602Z,100.00
2022-11-12T18:55:24.086Z,100.00
2022-11-12T18:58:30.513Z,100.00
2022-11-12T19:01:37.756Z,100.00
2022-11-12T19:04:45.182Z,100.00
2022-11-12T19:07:48.068Z,100.00
2022-11-12T19:10:52.041Z,100.00
2022-11-12T19:13:56.031Z,100.00
2022-11-12T19:16:59.850Z,100.00
2022-11-12T19:20:02.404Z,100.00
2022-11-12T19:23:04.893Z,100.00
2022-11-12T19:26:08.959Z,100.00
2022-11-12T19:29:11.495Z,100.00
2022-11-12T19:32:15.267Z,100.00
2022-11-12T19:35:17.816Z,100.00
2022-11-12T19:38:20.473Z,100.00
2022-11-12T19:41:23.104Z,100.00
2022-11-12T19:44:25.576Z,100.00
2022-11-12T19:47:29.483Z,100.00
2022-11-12T19:50:34.085Z,100.00
2022-11-12T19:53:38.755Z,100.00
2022-11-12T19:56:41.269Z,100.00
2022-11-12T19:59:43.749Z,100.00
2022-11-12T20:02:47.632Z,100.00
2022-11-12T20:05:52.089Z,100.00
2022-11-12T20:08:54.822Z,100.00
2022-11-12T20:11:57.358Z,100.00
2022-11-12T20:14:59.911Z,100.00
2022-11-12T20:18:03.743Z,100.00
2022-11-12T20:21:06.684Z,100.00
2022-11-12T20:24:10.628Z,100.00
2022-11-12T20:27:13.106Z,100.00
2022-11-12T20:30:15.954Z,100.00
2022-11-12T20:33:19.892Z,100.00
2022-11-12T20:36:24.821Z,100.00
2022-11-12T20:39:27.334Z,100.00
2022-11-12T20:42:29.855Z,100.00
2022-11-12T20:45:32.777Z,100.00
2022-11-12T20:48:41.463Z,100.00
2022-11-12T20:51:45.574Z,100.00
2022-11-12T20:54:48.118Z,100.00
2022-11-12T20:57:50.717Z,100.00
2022-11-12T21:00:53.324Z,100.00
2022-11-12T21:03:57.585Z,100.00
2022-11-12T21:07:05.085Z,100.00
2022-11-12T21:10:09.321Z,100.00
2022-11-12T21:13:11.782Z,100.00
2022-11-12T21:16:15.674Z,100.00
2022-11-12T21:19:19.624Z,100.00
2022-11-12T21:22:22.115Z,100.00
2022-11-12T21:25:24.701Z,100.00
2022-11-12T21:28:27.567Z,100.00
2022-11-12T21:31:30.834Z,100.00
2022-11-12T21:34:34.700Z,100.00
2022-11-12T21:37:37.251Z,100.00
2022-11-12T21:40:39.755Z,100.00
2022-11-12T21:43:44.585Z,100.00
2022-11-12T21:46:47.133Z,100.00
2022-11-12T21:49:50.982Z,100.00
2022-11-12T21:52:53.447Z,100.00
2022-11-12T21:56:02.333Z,100.00
2022-11-12T21:59:05.065Z,100.00
2022-11-12T22:02:07.665Z,100.00
2022-11-12T22:05:11.689Z,100.00
2022-11-12T22:08:15.084Z,100.00
2022-11-12T22:11:18.479Z,100.00
2022-11-12T22:14:21.076Z,100.00
2022-11-12T22:17:23.670Z,100.00
2022-11-12T22:20:27.517Z,100.00
2022-11-12T22:23:32.863Z,100.00
2022-11-12T22:26:35.528Z,100.00
2022-11-12T22:29:38.053Z,100.00
2022-11-12T22:32:40.612Z,100.00
2022-11-12T22:35:44.873Z,100.00
2022-11-12T22:38:49.428Z,100.00
2022-11-12T22:41:51.904Z,100.00
2022-11-12T22:44:54.402Z,100.00
2022-11-12T22:47:59.347Z,100.00
2022-11-12T22:51:04.796Z,100.00
2022-11-12T22:54:09.381Z,100.00
2022-11-12T22:57:11.835Z,100.00
2022-11-12T23:00:15.691Z,100.00
2022-11-12T23:03:18.211Z,100.00
2022-11-12T23:06:22.657Z,100.00
2022-11-12T23:09:25.231Z,100.00
2022-11-12T23:12:30.247Z,100.00
2022-11-12T23:15:32.871Z,100.00
2022-11-12T23:18:35.481Z,100.00
2022-11-12T23:21:39.424Z,100.00
2022-11-12T23:24:41.989Z,100.00
2022-11-12T23:27:44.567Z,100.00
2022-11-12T23:30:50.340Z,100.00
2022-11-12T23:33:55.487Z,100.00
2022-11-12T23:36:59.332Z,100.00
2022-11-12T23:40:02.000Z,100.00
2022-11-12T23:43:04.528Z,100.00
2022-11-12T23:46:07.492Z,100.00
2022-11-12T23:49:10.094Z,100.00
2022-11-12T23:52:13.894Z,100.00
2022-11-12T23:55:16.518Z,100.00
2022-11-12T23:58:18.974Z,100.00
